Time;durP1;ratioP1;P1;durP2;ratioP2;P2;SDS_P1;SDS_P2;PMS_P1;PMS_P2;Temp;Humidity;BMP_temperature;BMP_pressure;BME280_temperature;BME280_humidity;BME280_pressure;Samples;Min_cycle;Max_cycle;Signal;HPM_P1;HPM_P2
2023/08/05 00:01:15;;;;;;;21.60;15.05;;;;;;;16.04;100.00;101585.31;5051129;28;20073;-66
2023/08/05 00:03:41;;;;;;;21.75;15.77;;;;;;;16.02;100.00;101583.97;5051136;28;20032;-66
2023/08/05 00:06:07;;;;;;;21.73;15.38;;;;;;;16.01;100.00;101579.56;5051045;28;20484;-66
2023/08/05 00:08:32;;;;;;;20.45;15.07;;;;;;;15.99;100.00;101573.47;5051059;28;20468;-66
2023/08/05 00:10:57;;;;;;;20.52;15.35;;;;;;;15.98;100.00;101574.63;5050858;28;20504;-66
2023/08/05 00:13:23;;;;;;;21.13;14.90;;;;;;;15.93;100.00;101575.59;5050969;28;20040;-66
2023/08/05 00:15:49;;;;;;;21.40;15.05;;;;;;;15.98;100.00;101571.81;5050977;28;20064;-66
2023/08/05 00:18:15;;;;;;;21.52;15.55;;;;;;;15.95;100.00;101570.50;5050936;28;20056;-66
2023/08/05 00:20:40;;;;;;;21.83;15.45;;;;;;;15.91;100.00;101566.72;5050883;28;20100;-66
2023/08/05 00:23:06;;;;;;;20.23;14.95;;;;;;;15.93;100.00;101564.44;5050721;28;20025;-66
2023/08/05 00:25:31;;;;;;;21.50;15.05;;;;;;;15.95;100.00;101567.72;5051046;28;20100;-67
2023/08/05 00:27:56;;;;;;;22.58;15.30;;;;;;;15.95;100.00;101567.72;5050986;28;20037;-67
2023/08/05 00:30:22;;;;;;;21.60;15.23;;;;;;;15.94;100.00;101565.22;5050616;28;20017;-66
2023/08/05 00:32:47;;;;;;;21.17;15.00;;;;;;;15.92;100.00;101561.97;5050796;28;20025;-66
2023/08/05 00:35:12;;;;;;;21.55;15.60;;;;;;;15.90;100.00;101557.53;5050846;28;20029;-67
2023/08/05 00:37:38;;;;;;;23.83;16.00;;;;;;;15.90;100.00;101562.28;5050695;28;20013;-66
2023/08/05 00:40:05;;;;;;;21.15;16.27;;;;;;;15.89;100.00;101560.63;5050715;28;20021;-66
2023/08/05 00:42:30;;;;;;;22.08;16.13;;;;;;;15.85;100.00;101551.28;5050516;28;20041;-66
2023/08/05 00:44:56;;;;;;;22.60;15.77;;;;;;;15.74;100.00;101554.34;5050629;28;20560;-67
2023/08/05 00:47:22;;;;;;;21.45;15.05;;;;;;;15.69;100.00;101551.69;5050645;28;20115;-66
2023/08/05 00:49:50;;;;;;;21.98;15.25;;;;;;;15.60;100.00;101537.75;5050695;28;20041;-66
2023/08/05 00:52:18;;;;;;;22.15;15.63;;;;;;;15.64;100.00;101549.06;5050749;28;20052;-67
2023/08/05 00:54:43;;;;;;;21.92;15.90;;;;;;;15.60;100.00;101545.28;5050764;28;20021;-66
2023/08/05 00:57:11;;;;;;;22.08;15.95;;;;;;;15.55;100.00;101537.88;5049273;28;20025;-67
2023/08/05 00:59:36;;;;;;;23.45;16.30;;;;;;;15.51;100.00;101527.69;5050641;28;20064;-66
2023/08/05 01:02:02;;;;;;;21.60;16.75;;;;;;;15.43;100.00;101530.13;5050577;28;20063;-67
2023/08/05 01:04:27;;;;;;;22.67;16.00;;;;;;;15.40;100.00;101527.97;5050621;28;20041;-67
2023/08/05 01:06:53;;;;;;;22.38;15.43;;;;;;;15.40;100.00;101532.75;5050563;28;20052;-67
2023/08/05 01:09:18;;;;;;;20.42;15.63;;;;;;;15.34;100.00;101528.47;5050429;28;20028;-67
2023/08/05 01:11:44;;;;;;;21.23;14.95;;;;;;;15.32;100.00;101520.41;5050536;28;20469;-66
2023/08/05 01:14:09;;;;;;;20.70;15.73;;;;;;;15.31;100.00;101524.34;5050488;28;20491;-66
2023/08/05 01:16:34;;;;;;;21.83;15.73;;;;;;;15.28;100.00;101509.09;5050547;28;20037;-67
2023/08/05 01:19:04;;;;;;;21.75;14.88;;;;;;;15.25;100.00;101506.97;5053285;28;20045;-66
2023/08/05 01:21:39;;;;;;;22.08;16.00;;;;;;;15.25;100.00;101509.75;5054124;28;20045;-66
2023/08/05 01:24:07;;;;;;;21.40;15.95;;;;;;;15.26;100.00;101508.56;5054179;28;20112;-66
2023/08/05 01:26:34;;;;;;;22.05;15.93;;;;;;;15.19;100.00;101508.22;5054080;28;20581;-67
2023/08/05 01:29:00;;;;;;;22.23;15.63;;;;;;;15.12;100.00;101507.88;5053985;28;20477;-66
2023/08/05 01:31:28;;;;;;;20.90;15.15;;;;;;;15.06;100.00;101512.75;5053798;28;20049;-66
2023/08/05 01:33:54;;;;;;;21.25;15.02;;;;;;;15.07;100.00;101511.63;5054006;28;20033;-66
2023/08/05 01:36:21;;;;;;;22.55;15.75;;;;;;;15.07;100.00;101510.78;5053865;28;20052;-66
2023/08/05 01:38:47;;;;;;;23.30;15.60;;;;;;;15.07;100.00;101513.56;5053893;28;20047;-67
2023/08/05 01:41:16;;;;;;;20.75;15.07;;;;;;;15.05;100.00;101513.09;5053823;28;20144;-66
2023/08/05 01:43:42;;;;;;;22.35;15.45;;;;;;;15.03;100.00;101515.38;5053670;28;20029;-66
2023/08/05 01:46:07;;;;;;;20.40;15.25;;;;;;;15.04;100.00;101506.69;5053727;28;20066;-66
2023/08/05 01:48:32;;;;;;;21.52;16.20;;;;;;;15.01;100.00;101504.56;5053669;28;20370;-66
2023/08/05 01:50:58;;;;;;;22.80;15.82;;;;;;;15.01;100.00;101517.66;5053472;28;20488;-66
2023/08/05 01:53:23;;;;;;;22.17;15.48;;;;;;;14.96;100.00;101513.88;5053545;28;20086;-66
2023/08/05 01:55:48;;;;;;;20.88;15.82;;;;;;;14.92;100.00;101517.63;5053477;28;20021;-66
2023/08/05 01:58:13;;;;;;;22.23;16.42;;;;;;;14.89;100.00;101515.47;5053499;28;20092;-66
2023/08/05 02:00:39;;;;;;;22.98;16.55;;;;;;;14.87;100.00;101512.16;5053462;28;20136;-66
2023/08/05 02:03:04;;;;;;;22.17;15.98;;;;;;;14.87;100.00;101512.16;5053373;28;20163;-66
2023/08/05 02:05:29;;;;;;;21.30;16.38;;;;;;;14.89;100.00;101510.72;5053299;28;20477;-66
2023/08/05 02:07:55;;;;;;;21.90;16.42;;;;;;;14.89;100.00;101507.09;5053386;28;20037;-66
2023/08/05 02:10:20;;;;;;;22.05;16.08;;;;;;;14.85;100.00;101508.88;5051999;28;20021;-66
2023/08/05 02:12:45;;;;;;;22.17;16.60;;;;;;;14.81;100.00;101511.47;5053222;28;20461;-66
2023/08/05 02:15:10;;;;;;;22.13;16.17;;;;;;;14.81;100.00;101514.28;5053189;28;20444;-66
2023/08/05 02:17:36;;;;;;;22.70;16.15;;;;;;;14.80;100.00;101513.47;5053128;28;20090;-66
2023/08/05 02:20:01;;;;;;;20.88;16.02;;;;;;;14.75;100.00;101512.75;5053058;28;20025;-66
2023/08/05 02:22:26;;;;;;;22.85;15.95;;;;;;;14.75;100.00;101516.38;5052920;28;20051;-66
2023/08/05 02:24:52;;;;;;;23.13;15.88;;;;;;;14.72;100.00;101516.19;5053046;28;20158;-66
2023/08/05 02:27:17;;;;;;;21.05;16.42;;;;;;;14.66;100.00;101519.09;5052968;28;20032;-66
2023/08/05 02:29:42;;;;;;;21.23;16.58;;;;;;;14.58;100.00;101510.66;5051810;28;20070;-66
2023/08/05 02:32:08;;;;;;;22.60;16.38;;;;;;;14.53;100.00;101511.59;5052737;28;20057;-66
2023/08/05 02:34:35;;;;;;;24.25;16.00;;;;;;;14.50;100.00;101501.94;5052699;28;20100;-66
2023/08/05 02:37:00;;;;;;;22.42;15.50;;;;;;;14.49;100.00;101502.25;5052655;28;20082;-66
2023/08/05 02:39:26;;;;;;;23.63;16.67;;;;;;;14.45;100.00;101490.91;5052918;28;20112;-66
2023/08/05 02:41:52;;;;;;;21.58;16.10;;;;;;;14.42;100.00;101488.78;5052579;28;20363;-66
2023/08/05 02:44:17;;;;;;;21.27;15.93;;;;;;;14.31;100.00;101490.97;5052766;28;20063;-66
2023/08/05 02:46:42;;;;;;;21.55;15.80;;;;;;;14.27;100.00;101486.34;5052596;28;20046;-66
2023/08/05 02:49:08;;;;;;;22.27;16.05;;;;;;;14.25;100.00;101494.22;5052570;28;20029;-66
2023/08/05 02:51:35;;;;;;;21.30;16.42;;;;;;;14.22;100.00;101484.50;5052341;28;20090;-66
2023/08/05 02:54:00;;;;;;;22.50;16.83;;;;;;;14.22;100.00;101489.28;5052320;28;20029;-66
2023/08/05 02:56:25;;;;;;;22.95;16.20;;;;;;;14.25;100.00;101494.22;5052234;28;20057;-66
2023/08/05 02:58:51;;;;;;;21.67;16.08;;;;;;;14.25;100.00;101488.66;5052197;28;20025;-66
2023/08/05 03:01:16;;;;;;;22.75;16.55;;;;;;;14.31;100.00;101487.38;5052245;28;20021;-66
2023/08/05 03:03:41;;;;;;;22.33;16.40;;;;;;;14.34;100.00;101481.19;5052022;28;20439;-66
2023/08/05 03:06:07;;;;;;;22.85;16.33;;;;;;;14.38;100.00;101481.38;5052069;28;20021;-66
2023/08/05 03:08:32;;;;;;;23.40;16.15;;;;;;;14.40;100.00;101477.13;5052030;28;20477;-66
2023/08/05 03:11:01;;;;;;;22.00;16.38;;;;;;;14.43;100.00;101470.94;5052120;28;20366;-66
2023/08/05 03:13:27;;;;;;;23.77;16.13;;;;;;;14.40;100.00;101473.53;5052006;28;20025;-66
2023/08/05 03:15:53;;;;;;;24.45;16.58;;;;;;;14.43;100.00;101462.59;5052031;28;20033;-66
2023/08/05 03:18:19;;;;;;;22.38;16.35;;;;;;;14.43;100.00;101461.75;5051826;28;20472;-66
2023/08/05 03:20:44;;;;;;;24.00;16.30;;;;;;;14.42;100.00;101463.72;5051797;28;20040;-66
2023/08/05 03:23:10;;;;;;;22.17;16.83;;;;;;;14.39;100.00;101463.53;5051656;28;20090;-66
2023/08/05 03:25:36;;;;;;;23.55;17.10;;;;;;;14.32;100.00;101455.63;5051842;28;20029;-66
2023/08/05 03:28:02;;;;;;;23.08;16.90;;;;;;;14.32;100.00;101459.22;5050329;28;20392;-66
2023/08/05 03:30:27;;;;;;;23.08;16.88;;;;;;;14.29;100.00;101457.09;5051410;28;20045;-66
2023/08/05 03:32:52;;;;;;;25.00;16.63;;;;;;;14.31;100.00;101459.56;5051633;28;20491;-66
2023/08/05 03:35:18;;;;;;;24.05;17.08;;;;;;;14.27;100.00;101453.78;5050108;28;20021;-66
2023/08/05 03:37:46;;;;;;;22.33;16.80;;;;;;;14.24;100.00;101459.97;5051605;28;20473;-66
2023/08/05 03:40:13;;;;;;;23.80;17.17;;;;;;;14.20;100.00;101456.22;5051165;28;20048;-66
2023/08/05 03:42:39;;;;;;;22.77;16.98;;;;;;;14.16;100.00;101439.31;5051374;28;20071;-66
2023/08/05 03:45:05;;;;;;;24.30;17.70;;;;;;;14.17;100.00;101442.91;5051796;28;20029;-66
2023/08/05 03:47:32;;;;;;;22.98;16.75;;;;;;;14.13;100.00;101431.59;5051250;28;20037;-66
2023/08/05 03:49:57;;;;;;;23.08;16.83;;;;;;;14.14;100.00;101429.63;5051262;28;20033;-66
2023/08/05 03:52:24;;;;;;;22.73;16.83;;;;;;;14.09;100.00;101432.56;5051406;28;20042;-66
2023/08/05 03:54:51;;;;;;;23.33;16.98;;;;;;;14.01;100.00;101421.06;5051628;28;20029;-66
2023/08/05 03:57:16;;;;;;;22.83;17.15;;;;;;;13.97;100.00;101422.00;5051313;28;20032;-66
2023/08/05 03:59:41;;;;;;;23.30;16.90;;;;;;;13.91;100.00;101415.72;5051105;28;20028;-66
2023/08/05 04:02:07;;;;;;;22.50;17.30;;;;;;;13.87;100.00;101409.97;5051154;28;20453;-66
2023/08/05 04:04:32;;;;;;;23.63;17.52;;;;;;;13.85;100.00;101409.47;5051605;28;20389;-66
2023/08/05 04:06:58;;;;;;;22.65;17.75;;;;;;;13.82;100.00;101403.72;5051004;28;20033;-66
2023/08/05 04:09:24;;;;;;;23.13;17.33;;;;;;;13.84;100.00;101412.53;5051412;28;20028;-66
2023/08/05 04:11:49;;;;;;;22.52;17.67;;;;;;;13.84;100.00;101404.19;5051414;28;20047;-66
2023/08/05 04:14:20;;;;;;;23.83;17.27;;;;;;;13.75;100.00;101411.66;5051326;28;20043;-66
2023/08/05 04:16:47;;;;;;;23.95;17.85;;;;;;;13.71;100.00;101412.28;5051241;28;20100;-66
2023/08/05 04:19:13;;;;;;;23.58;18.08;;;;;;;13.63;100.00;101413.03;5051540;28;20075;-66
2023/08/05 04:21:46;;;;;;;25.30;18.02;;;;;;;13.62;100.00;101407.78;5051078;28;20029;-66
2023/08/05 04:24:13;;;;;;;24.77;17.10;;;;;;;13.63;100.00;101423.31;5050301;28;20175;-66
2023/08/05 04:26:39;;;;;;;23.60;16.80;;;;;;;13.63;100.00;101413.03;5051606;28;20040;-66
2023/08/05 04:29:04;;;;;;;23.85;17.27;;;;;;;13.65;100.00;101404.38;5051379;28;20546;-66
2023/08/05 04:31:30;;;;;;;24.38;17.20;;;;;;;13.63;100.00;101392.75;5050990;28;20421;-66
2023/08/05 04:33:55;;;;;;;24.38;17.15;;;;;;;13.64;100.00;101391.63;5051277;28;20029;-66
2023/08/05 04:36:20;;;;;;;24.60;16.77;;;;;;;13.67;100.00;101385.44;5051208;28;20103;-66
2023/08/05 04:38:45;;;;;;;25.38;17.30;;;;;;;13.67;100.00;101377.91;5051285;28;20036;-66
2023/08/05 04:41:11;;;;;;;24.35;16.98;;;;;;;13.68;100.00;101371.22;5051006;28;20029;-66
2023/08/05 04:43:36;;;;;;;29.85;18.50;;;;;;;13.71;100.00;101366.97;5050975;28;20108;-66
2023/08/05 04:46:01;;;;;;;24.17;16.88;;;;;;;13.67;100.00;101369.56;5050893;28;20021;-66
2023/08/05 04:48:27;;;;;;;25.05;16.88;;;;;;;13.70;100.00;101376.44;5051129;28;20044;-66
2023/08/05 04:50:52;;;;;;;25.15;17.17;;;;;;;13.76;100.00;101366.03;5050961;28;20473;-66
2023/08/05 04:53:17;;;;;;;23.58;17.38;;;;;;;13.73;100.00;101364.69;5052746;28;20071;-66
2023/08/05 04:55:43;;;;;;;25.17;17.15;;;;;;;13.75;100.00;101359.66;5054847;28;20028;-66
2023/08/05 04:58:08;;;;;;;23.75;17.08;;;;;;;13.77;100.00;101364.88;5054688;28;20442;-66
2023/08/05 05:00:34;;;;;;;25.58;17.40;;;;;;;13.78;100.00;101363.75;5054608;28;20021;-66
2023/08/05 05:02:59;;;;;;;22.73;16.83;;;;;;;13.78;100.00;101361.81;5053021;28;20341;-66
2023/08/05 05:05:25;;;;;;;26.52;18.05;;;;;;;13.78;100.00;101360.97;5054439;28;20028;-66
2023/08/05 05:07:50;;;;;;;24.05;17.45;;;;;;;13.80;100.00;101373.41;5054422;28;20025;-66
2023/08/05 05:10:16;;;;;;;26.17;17.90;;;;;;;13.81;100.00;101363.13;5054418;28;20032;-65
2023/08/05 05:12:41;;;;;;;24.08;17.38;;;;;;;13.83;100.00;101366.44;5054421;28;20029;-66
2023/08/05 05:15:07;;;;;;;25.77;18.23;;;;;;;13.81;100.00;101360.34;5054253;28;20047;-66
2023/08/05 05:17:34;;;;;;;26.23;18.23;;;;;;;13.81;100.00;101360.34;5054618;28;20423;-66
2023/08/05 05:20:00;;;;;;;25.52;18.17;;;;;;;13.80;100.00;101353.16;5052894;28;20025;-66
2023/08/05 05:22:26;;;;;;;25.00;18.05;;;;;;;13.86;100.00;101349.94;5054028;28;20334;-66
2023/08/05 05:24:51;;;;;;;26.77;19.00;;;;;;;13.86;100.00;101349.94;5054116;28;20492;-66
2023/08/05 05:27:17;;;;;;;24.92;18.42;;;;;;;13.91;100.00;101356.47;5054255;28;20025;-66
2023/08/05 05:29:44;;;;;;;25.70;18.80;;;;;;;13.94;100.00;101356.66;5054025;28;20047;-66
2023/08/05 05:32:09;;;;;;;27.77;18.67;;;;;;;13.94;100.00;101353.06;5053355;28;20056;-66
2023/08/05 05:34:35;;;;;;;24.38;18.38;;;;;;;13.94;100.00;101351.09;5053941;28;20021;-66
2023/08/05 05:37:00;;;;;;;25.33;18.30;;;;;;;13.97;100.00;101358.03;5054068;28;20033;-66
2023/08/05 05:39:25;;;;;;;24.88;18.17;;;;;;;14.00;100.00;101354.59;5053859;28;20021;-66
2023/08/05 05:41:51;;;;;;;25.70;18.42;;;;;;;14.04;100.00;101338.91;5053784;28;20110;-66
2023/08/05 05:44:17;;;;;;;26.67;18.10;;;;;;;14.08;100.00;101334.34;5053734;28;20202;-66
2023/08/05 05:46:43;;;;;;;26.15;18.38;;;;;;;14.10;100.00;101332.06;5053707;28;20473;-66
2023/08/05 05:49:10;;;;;;;24.60;17.98;;;;;;;14.16;100.00;101339.16;5053871;28;20188;-66
2023/08/05 05:51:35;;;;;;;26.60;18.48;;;;;;;14.21;100.00;101343.78;5053462;28;20056;-66
2023/08/05 05:54:00;;;;;;;27.05;19.67;;;;;;;14.27;100.00;101345.25;5053373;28;20416;-66
2023/08/05 05:56:26;;;;;;;25.15;18.80;;;;;;;14.33;100.00;101343.97;5053303;28;20052;-66
2023/08/05 05:58:51;;;;;;;24.95;18.95;;;;;;;14.42;100.00;101341.25;5053304;28;20457;-66
2023/08/05 06:01:16;;;;;;;26.58;19.85;;;;;;;14.53;100.00;101332.63;5053224;28;20115;-66
2023/08/05 06:03:42;;;;;;;25.92;18.63;;;;;;;14.61;100.00;101335.41;5053067;28;20036;-66
2023/08/05 06:06:07;;;;;;;26.80;19.17;;;;;;;14.67;100.00;101327.78;5053038;28;20028;-66
2023/08/05 06:08:34;;;;;;;26.15;18.83;;;;;;;14.74;100.00;101333.69;5053148;28;20028;-66
2023/08/05 06:11:03;;;;;;;26.33;19.15;;;;;;;14.82;100.00;101334.88;5052893;28;20341;-66
2023/08/05 06:13:28;;;;;;;25.00;19.02;;;;;;;14.96;100.00;101332.78;5052991;28;20036;-66
2023/08/05 06:15:54;;;;;;;26.50;19.70;;;;;;;15.05;100.00;101332.78;5051569;28;20017;-66
2023/08/05 06:18:19;;;;;;;24.40;18.45;;;;;;;15.13;100.00;101326.41;5052991;28;20021;-66
2023/08/05 06:20:47;;;;;;;25.17;18.58;;;;;;;15.17;100.00;101317.41;5052889;28;20029;-66
2023/08/05 06:23:12;;;;;;;25.73;19.13;;;;;;;15.31;100.00;101318.06;5052734;28;20376;-66
2023/08/05 06:25:38;;;;;;;25.55;19.30;;;;;;;15.42;100.00;101324.97;5052735;28;20032;-66
2023/08/05 06:28:03;;;;;;;26.58;18.33;;;;;;;15.50;100.00;101323.31;5052970;28;20033;-66
2023/08/05 06:30:28;;;;;;;25.45;18.60;;;;;;;15.52;100.00;101323.81;5052513;28;20124;-66
2023/08/05 06:32:54;;;;;;;25.20;18.17;;;;;;;15.55;100.00;101320.38;5052753;28;20021;-66
2023/08/05 06:35:19;;;;;;;26.20;18.95;;;;;;;15.61;100.00;101321.03;5052559;28;20083;-66
2023/08/05 06:37:44;;;;;;;25.00;18.30;;;;;;;15.73;100.00;101323.13;5052430;28;20044;-66
2023/08/05 06:40:10;;;;;;;25.08;18.30;;;;;;;15.82;100.00;101320.34;5052548;28;20250;-66
2023/08/05 06:42:36;;;;;;;26.73;19.48;;;;;;;15.93;100.00;101318.06;5052354;28;20037;-66
2023/08/05 06:45:01;;;;;;;25.25;18.90;;;;;;;16.06;100.00;101306.69;5052411;28;20033;-66
2023/08/05 06:47:31;;;;;;;24.83;18.52;;;;;;;16.13;100.00;101316.53;5052391;28;20032;-66
2023/08/05 06:49:57;;;;;;;25.92;18.25;;;;;;;16.13;100.00;101313.75;5052499;28;20156;-66
2023/08/05 06:52:22;;;;;;;23.30;17.55;;;;;;;16.15;100.00;101311.47;5052385;28;20029;-66
2023/08/05 06:54:47;;;;;;;24.80;18.45;;;;;;;16.29;100.00;101319.63;5052260;28;20112;-66
2023/08/05 06:57:13;;;;;;;24.88;18.92;;;;;;;16.34;100.00;101313.84;5050832;28;20485;-66
2023/08/05 06:59:38;;;;;;;25.35;18.23;;;;;;;16.38;100.00;101312.84;5052102;28;20060;-66
2023/08/05 07:02:03;;;;;;;25.80;18.58;;;;;;;16.44;100.00;101304.25;5051954;28;20029;-66
2023/08/05 07:04:29;;;;;;;24.55;18.58;;;;;;;16.53;100.00;101305.06;5052020;28;20036;-66
2023/08/05 07:06:54;;;;;;;25.40;18.23;;;;;;;16.61;100.00;101303.38;5051966;28;20199;-66
2023/08/05 07:09:19;;;;;;;23.60;18.20;;;;;;;16.74;100.00;101302.31;5051855;28;20481;-66
2023/08/05 07:11:45;;;;;;;25.38;17.95;;;;;;;16.76;100.00;101301.97;5051703;28;20029;-66
2023/08/05 07:14:10;;;;;;;23.77;17.40;;;;;;;16.75;100.00;101294.75;5051894;28;20032;-66
2023/08/05 07:16:36;;;;;;;25.25;17.48;;;;;;;16.88;100.00;101285.31;5051057;28;20021;-67
2023/08/05 07:19:01;;;;;;;25.10;17.73;;;;;;;16.97;100.00;101288.06;5051652;28;20033;-66
2023/08/05 07:21:27;;;;;;;23.90;17.70;;;;;;;16.97;100.00;101280.50;5051783;28;20159;-66
2023/08/05 07:23:52;;;;;;;42.65;21.88;;;;;;;17.03;100.00;101281.13;5051659;28;20017;-67
2023/08/05 07:26:17;;;;;;;24.70;17.05;;;;;;;17.08;100.00;101286.50;5051772;28;20607;-67
2023/08/05 07:28:43;;;;;;;24.35;17.08;;;;;;;17.04;100.00;101290.31;5051548;28;20029;-66
2023/08/05 07:31:10;;;;;;;23.40;16.83;;;;;;;17.16;100.00;101287.63;5051324;28;20084;-66
2023/08/05 07:33:36;;;;;;;22.23;16.15;;;;;;;17.25;100.00;101287.53;5051804;28;20119;-66
2023/08/05 07:36:11;;;;;;;22.25;15.90;;;;;;;17.42;100.00;101292.16;5051561;28;20584;-67
2023/08/05 07:38:39;;;;;;;23.30;15.90;;;;;;;17.53;100.00;101292.56;5051363;28;20060;-66
2023/08/05 07:41:06;;;;;;;21.30;15.20;;;;;;;17.50;100.00;101284.88;5049796;28;20021;-66
2023/08/05 07:43:35;;;;;;;20.17;15.00;;;;;;;17.65;100.00;101284.22;5051185;28;20174;-66
2023/08/05 07:46:01;;;;;;;21.83;14.98;;;;;;;17.75;99.66;101283.00;5051400;28;20029;-66
2023/08/05 07:48:27;;;;;;;20.83;14.50;;;;;;;17.93;99.14;101289.22;5049920;28;20112;-67
2023/08/05 07:50:52;;;;;;;22.73;14.82;;;;;;;18.12;99.64;101285.91;5051096;28;20101;-66
2023/08/05 07:53:20;;;;;;;21.23;14.20;;;;;;;18.32;97.85;101277.78;5051135;28;20040;-66
2023/08/05 07:55:46;;;;;;;19.25;13.75;;;;;;;18.31;95.24;101273.34;5051498;28;20114;-67
2023/08/05 07:58:12;;;;;;;19.52;13.48;;;;;;;18.36;95.32;101264.69;5051092;28;20072;-66
2023/08/05 08:00:39;;;;;;;21.63;13.93;;;;;;;18.41;93.67;101258.88;5051001;28;20111;-66
2023/08/05 08:03:05;;;;;;;20.08;14.02;;;;;;;18.47;93.42;101260.25;5051073;28;20104;-66
2023/08/05 08:05:30;;;;;;;21.50;14.15;;;;;;;18.52;94.21;101257.22;5050886;28;20100;-66
2023/08/05 08:07:56;;;;;;;21.35;14.13;;;;;;;18.53;92.23;101244.84;5050930;28;20048;-66
2023/08/05 08:10:24;;;;;;;20.02;13.68;;;;;;;18.53;91.42;101241.22;5051137;28;20071;-67
2023/08/05 08:12:53;;;;;;;19.70;13.73;;;;;;;18.51;91.64;101247.19;5051007;28;20035;-66
2023/08/05 08:15:18;;;;;;;19.00;13.35;;;;;;;18.56;92.48;101234.94;5051119;28;20029;-66
2023/08/05 08:17:43;;;;;;;19.13;13.32;;;;;;;18.70;91.85;101232.56;5050895;28;20384;-66
2023/08/05 08:20:09;;;;;;;20.77;14.05;;;;;;;18.78;90.83;101233.63;5050989;28;20029;-67
2023/08/05 08:22:34;;;;;;;20.20;13.32;;;;;;;18.93;89.89;101231.28;5050852;28;20021;-67
2023/08/05 08:25:00;;;;;;;20.33;13.85;;;;;;;18.90;88.02;101231.94;5050743;28;20384;-66
2023/08/05 08:27:25;;;;;;;20.17;14.30;;;;;;;18.93;88.90;101229.28;5051340;28;20044;-66
2023/08/05 08:29:50;;;;;;;19.63;13.50;;;;;;;18.99;88.87;101227.88;5055007;28;20021;-67
2023/08/05 08:32:16;;;;;;;20.27;13.60;;;;;;;19.08;88.86;101222.09;5054868;28;20099;-66
2023/08/05 08:34:41;;;;;;;19.50;13.50;;;;;;;19.08;88.31;101210.88;5054779;28;20085;-66
2023/08/05 08:37:06;;;;;;;19.23;13.13;;;;;;;19.07;87.64;101208.44;5054581;28;20029;-67
2023/08/05 08:39:32;;;;;;;19.55;13.30;;;;;;;19.01;86.23;101210.69;5054692;28;20064;-66
2023/08/05 08:41:58;;;;;;;19.13;13.82;;;;;;;19.03;87.08;101213.94;5054409;28;20029;-66
2023/08/05 08:44:29;;;;;;;20.05;12.90;;;;;;;19.10;88.29;101202.94;5054509;28;20529;-66
2023/08/05 08:46:56;;;;;;;20.40;12.73;;;;;;;19.18;86.00;101201.16;5054506;28;20079;-66
2023/08/05 08:49:21;;;;;;;19.70;12.52;;;;;;;19.28;87.08;101199.81;5054381;28;20063;-66
2023/08/05 08:51:47;;;;;;;18.65;12.30;;;;;;;19.40;84.39;101194.16;5054349;28;20113;-66
2023/08/05 08:54:17;;;;;;;19.67;13.00;;;;;;;19.61;85.93;101181.91;5054528;28;20055;-67
2023/08/05 08:56:42;;;;;;;20.10;12.93;;;;;;;20.02;85.93;101176.16;5054234;28;20021;-66
2023/08/05 08:59:08;;;;;;;19.23;12.55;;;;;;;20.21;81.39;101181.84;5054128;28;20048;-66
2023/08/05 09:01:38;;;;;;;18.98;12.23;;;;;;;20.12;80.09;101169.19;5054064;28;20040;-66
2023/08/05 09:04:05;;;;;;;19.35;11.98;;;;;;;20.11;78.07;101176.78;5054162;28;20147;-66
2023/08/05 09:06:31;;;;;;;18.02;11.48;;;;;;;20.17;80.13;101174.50;5054008;28;20032;-66
2023/08/05 09:08:57;;;;;;;18.10;11.40;;;;;;;20.35;80.02;101166.50;5054070;28;20035;-66
2023/08/05 09:11:22;;;;;;;16.70;10.88;;;;;;;20.78;80.60;101161.06;5053892;28;20111;-66
2023/08/05 09:13:50;;;;;;;18.30;11.93;;;;;;;20.90;75.46;101160.91;5054104;28;20056;-66
2023/08/05 09:16:15;;;;;;;19.20;11.82;;;;;;;21.07;74.52;101147.56;5053966;28;20021;-66
2023/08/05 09:18:47;;;;;;;17.60;11.57;;;;;;;21.33;75.15;101138.44;5054107;28;20028;-66
2023/08/05 09:21:21;;;;;;;16.67;11.27;;;;;;;21.56;74.96;101144.09;5053817;28;20396;-66
2023/08/05 09:23:46;;;;;;;19.13;11.88;;;;;;;21.54;72.36;101140.81;5053901;28;20052;-66
2023/08/05 09:26:12;;;;;;;17.92;11.77;;;;;;;21.38;74.13;101142.94;5053784;28;20059;-66
2023/08/05 09:28:39;;;;;;;18.10;11.85;;;;;;;21.19;74.24;101133.34;5053796;28;20037;-67
2023/08/05 09:31:16;;;;;;;17.35;11.68;;;;;;;20.95;76.14;101131.66;5053652;28;20439;-66
2023/08/05 09:33:43;;;;;;;18.45;11.85;;;;;;;20.85;77.23;101117.03;5053657;28;20029;-66
2023/08/05 09:36:10;;;;;;;17.45;11.20;;;;;;;20.92;76.32;101113.56;5053770;28;20033;-66
2023/08/05 09:38:38;;;;;;;17.75;11.90;;;;;;;20.99;76.90;101112.88;5053157;28;20043;-66
2023/08/05 09:41:03;;;;;;;16.73;10.85;;;;;;;21.08;76.41;101107.00;5053435;28;20032;-66
2023/08/05 09:43:33;;;;;;;16.02;11.18;;;;;;;21.07;75.60;101106.22;5053321;28;20052;-67
2023/08/05 09:46:02;;;;;;;15.85;11.07;;;;;;;21.11;75.69;101098.63;5053157;28;20331;-67
2023/08/05 09:48:36;;;;;;;17.38;11.23;;;;;;;21.19;75.11;101094.81;5051856;28;20025;-67
2023/08/05 09:51:03;;;;;;;18.00;11.05;;;;;;;21.30;75.15;101103.44;5051900;28;20029;-67
2023/08/05 09:53:34;;;;;;;18.25;11.45;;;;;;;21.30;74.08;101091.38;5053462;28;20110;-67
2023/08/05 09:55:59;;;;;;;15.57;10.88;;;;;;;21.19;73.66;101088.34;5051635;28;20094;-67
2023/08/05 09:58:25;;;;;;;17.48;11.00;;;;;;;21.08;74.91;101079.72;5053135;28;20447;-67
2023/08/05 10:00:51;;;;;;;15.82;11.02;;;;;;;21.25;74.40;101074.78;5052979;28;20121;-67
2023/08/05 10:03:19;;;;;;;16.17;10.88;;;;;;;21.23;72.89;101068.72;5052982;28;20029;-67
2023/08/05 10:05:44;;;;;;;15.70;11.35;;;;;;;21.08;73.73;101081.69;5053097;28;20119;-66
2023/08/05 10:08:11;;;;;;;17.63;10.90;;;;;;;20.93;74.83;101077.78;5053038;28;20071;-67
2023/08/05 10:10:38;;;;;;;16.00;11.25;;;;;;;20.72;74.35;101068.53;5052900;28;20075;-66
2023/08/05 10:13:08;;;;;;;16.83;10.98;;;;;;;20.62;76.42;101063.50;5052710;28;20025;-67
2023/08/05 10:15:40;;;;;;;16.42;10.70;;;;;;;20.70;76.20;101061.66;5053065;28;20052;-67
2023/08/05 10:18:10;;;;;;;17.52;11.25;;;;;;;20.73;74.95;101058.13;5052887;28;20025;-67
2023/08/05 10:20:36;;;;;;;18.40;11.63;;;;;;;20.70;74.59;101056.84;5052655;28;20146;-67
2023/08/05 10:23:09;;;;;;;16.77;11.75;;;;;;;20.49;75.72;101053.63;5052562;28;20082;-67
2023/08/05 10:25:42;;;;;;;18.73;12.32;;;;;;;20.47;76.90;101047.56;5052474;28;20028;-67
2023/08/05 10:28:09;;;;;;;18.27;11.70;;;;;;;20.52;76.28;101053.69;5052655;28;20068;-66
2023/08/05 10:30:44;;;;;;;16.52;11.25;;;;;;;20.70;75.74;101042.78;5052398;28;20087;-67
2023/08/05 10:33:10;;;;;;;17.65;11.07;;;;;;;20.97;74.51;101031.69;5052419;28;20047;-67
2023/08/05 10:35:40;;;;;;;20.23;11.43;;;;;;;21.14;73.71;101030.38;5052368;28;20124;-67
2023/08/05 10:38:22;;;;;;;17.42;11.35;;;;;;;21.24;72.69;101020.53;5052235;28;20396;-66
2023/08/05 10:40:52;;;;;;;18.33;12.13;;;;;;;21.08;71.08;101015.03;5052250;28;20024;-67
2023/08/05 10:43:30;;;;;;;18.15;12.40;;;;;;;20.94;73.72;101026.81;5052203;28;20035;-67
2023/08/05 10:46:05;;;;;;;18.45;12.10;;;;;;;20.63;73.59;101020.19;5052155;28;20021;-67
2023/08/05 10:48:49;;;;;;;18.25;12.00;;;;;;;20.31;74.71;101033.56;5052069;28;20025;-66
2023/08/05 10:51:16;;;;;;;18.10;12.30;;;;;;;19.89;75.99;101029.44;5051088;28;20044;-66
2023/08/05 10:53:51;;;;;;;18.73;12.50;;;;;;;19.72;78.67;101034.25;5050468;28;20452;-67
2023/08/05 10:56:17;;;;;;;22.00;13.05;;;;;;;19.56;79.80;101034.25;5051849;28;20477;-67
2023/08/05 10:58:47;;;;;;;19.33;13.40;;;;;;;19.41;79.81;101035.91;5052072;28;20154;-66
2023/08/05 11:01:13;;;;;;;18.83;13.00;;;;;;;19.39;81.43;101029.03;5052133;28;20129;-66